Greenbrier, Arkansas
Current Conditions -  °F | °C
As of 1:58 PM on Thursday 29 Jan 2015 (Local Time) from KLRF Reporting Station
Scattered Clouds Scattered Clouds  
Wind Chill: 60°   Ceiling: Unl
Heat Index: 60°   Visibility: 10mi
Dew Point: 40°   Wind: 10mph
Humidity: 46%   Direction: 350°N
Pressure: 30.18"   Gusts: 22mph
Location:  35.23°N, 92.39°W
Report Text: KLRF 291958Z AUTO 35009G19KT 310V020 10SM SCT190 16/04 A3018 RMK AO2 SLP222 T01580042
Loading
Personal Weather Stations






























Interactive Weather Map New forecast layout! Learn more

10-Day Weather Forecast

Advertisements
Track Severe Weather on mobile